Time;durP1;ratioP1;P1;durP2;ratioP2;P2;SDS_P1;SDS_P2;PMS_P1;PMS_P2;Temp;Humidity;BMP_temperature;BMP_pressure;BME280_temperature;BME280_humidity;BME280_pressure;Samples;Min_cycle;Max_cycle;Signal;HPM_P1;HPM_P2
2021/08/14 00:02:13;;;;;;;22.10;8.00;;;16.40;79.20;;;;;;5021925;28;20048;-72
2021/08/14 00:04:39;;;;;;;18.27;7.88;;;16.40;79.10;;;;;;4994007;28;20172;-71
2021/08/14 00:07:04;;;;;;;20.00;7.90;;;16.40;79.40;;;;;;5007893;28;20393;-79
2021/08/14 00:09:33;;;;;;;20.20;7.85;;;16.30;79.60;;;;;;5001750;28;20034;-76
2021/08/14 00:11:59;;;;;;;17.42;7.40;;;16.30;79.70;;;;;;4994663;28;20061;-75
2021/08/14 00:14:25;;;;;;;17.83;7.72;;;16.30;80.00;;;;;;4996980;28;20060;-75
2021/08/14 00:16:50;;;;;;;18.52;6.97;;;16.20;80.20;;;;;;5016260;28;20430;-72
2021/08/14 00:19:16;;;;;;;21.67;7.30;;;16.30;80.20;;;;;;5007766;28;20478;-79
2021/08/14 00:21:41;;;;;;;23.83;7.30;;;16.20;80.30;;;;;;5011189;28;20468;-75
2021/08/14 00:24:07;;;;;;;19.00;6.47;;;16.20;80.60;;;;;;5011187;28;20042;-73
2021/08/14 00:26:33;;;;;;;22.00;8.25;;;16.20;80.60;;;;;;5003106;28;20140;-75
2021/08/14 00:28:59;;;;;;;21.20;6.85;;;16.20;80.50;;;;;;5000827;28;20499;-73
2021/08/14 00:31:25;;;;;;;21.65;7.20;;;16.20;80.60;;;;;;5001983;28;20045;-72
2021/08/14 00:33:50;;;;;;;20.08;7.07;;;16.20;80.50;;;;;;4999701;28;20402;-72
2021/08/14 00:36:16;;;;;;;18.52;6.90;;;16.10;80.80;;;;;;4991875;28;20034;-73
2021/08/14 00:38:42;;;;;;;19.58;7.70;;;16.10;80.50;;;;;;5000207;28;20038;-72
2021/08/14 00:41:07;;;;;;;18.45;7.57;;;16.10;80.50;;;;;;5017805;28;20044;-73
2021/08/14 00:43:34;;;;;;;18.92;7.68;;;16.10;80.70;;;;;;4998957;28;20109;-73
2021/08/14 00:46:00;;;;;;;18.33;7.43;;;16.00;80.70;;;;;;5006913;28;20041;-72
2021/08/14 00:48:26;;;;;;;19.55;7.35;;;16.00;80.80;;;;;;5000507;28;20548;-72
2021/08/14 00:50:52;;;;;;;18.67;7.35;;;16.00;80.80;;;;;;5002545;28;20077;-77
2021/08/14 00:53:19;;;;;;;21.35;6.80;;;15.90;80.80;;;;;;4995333;28;20481;-72
2021/08/14 00:55:45;;;;;;;21.75;7.30;;;15.90;80.70;;;;;;4998599;28;21056;-73
2021/08/14 00:58:12;;;;;;;19.25;7.25;;;15.80;81.00;;;;;;4993539;28;20648;-71
2021/08/14 01:00:38;;;;;;;19.80;7.40;;;15.80;81.10;;;;;;4996201;28;20166;-79
2021/08/14 01:03:04;;;;;;;21.05;7.57;;;15.80;81.40;;;;;;4996287;28;20030;-83
2021/08/14 01:05:30;;;;;;;22.30;8.00;;;15.80;81.60;;;;;;5000424;28;20056;-72
2021/08/14 01:07:55;;;;;;;19.88;6.72;;;15.80;81.60;;;;;;5000826;28;20397;-72
2021/08/14 01:10:22;;;;;;;17.88;6.60;;;15.70;81.60;;;;;;4998510;28;20429;-71
2021/08/14 01:12:50;;;;;;;17.73;6.78;;;15.70;81.50;;;;;;5003782;28;20040;-72
2021/08/14 01:15:17;;;;;;;18.50;7.28;;;15.70;81.70;;;;;;4993820;28;20556;-78
2021/08/14 01:17:42;;;;;;;19.13;7.00;;;15.70;81.70;;;;;;4993336;28;20501;-71
2021/08/14 01:20:09;;;;;;;21.38;7.65;;;15.60;82.00;;;;;;4996626;28;20030;-72
2021/08/14 01:22:36;;;;;;;23.30;7.13;;;15.60;81.90;;;;;;5016386;28;20496;-75
2021/08/14 01:25:05;;;;;;;19.83;8.30;;;15.60;82.00;;;;;;4988553;28;20040;-72
2021/08/14 01:27:30;;;;;;;22.30;8.25;;;15.60;82.10;;;;;;4995498;28;20494;-75
2021/08/14 01:29:56;;;;;;;20.42;8.80;;;15.60;82.30;;;;;;4996035;28;20093;-79
2021/08/14 01:32:22;;;;;;;19.63;7.63;;;15.60;82.60;;;;;;4997662;28;20037;-72
2021/08/14 01:34:48;;;;;;;18.35;7.53;;;15.50;82.50;;;;;;5003452;28;20037;-72
2021/08/14 01:37:13;;;;;;;21.08;7.35;;;15.50;82.60;;;;;;4996506;28;20036;-72
2021/08/14 01:39:40;;;;;;;22.75;8.75;;;15.50;82.60;;;;;;4992571;28;20039;-83
2021/08/14 01:42:07;;;;;;;18.35;7.75;;;15.50;82.70;;;;;;4995175;28;20035;-72
2021/08/14 01:44:35;;;;;;;19.58;8.57;;;15.40;82.70;;;;;;4993439;28;20069;-80
2021/08/14 01:47:01;;;;;;;23.48;8.35;;;15.40;82.70;;;;;;4992101;28;20318;-74
2021/08/14 01:49:27;;;;;;;17.85;7.90;;;15.30;82.90;;;;;;5000289;28;20038;-79
2021/08/14 01:51:53;;;;;;;18.40;7.07;;;15.40;83.10;;;;;;5006041;28;20038;-76
2021/08/14 01:54:20;;;;;;;19.42;7.75;;;15.40;83.20;;;;;;4999991;28;20451;-72
2021/08/14 01:56:46;;;;;;;21.02;6.93;;;15.30;83.20;;;;;;5006435;28;20030;-72
2021/08/14 01:59:12;;;;;;;20.38;7.57;;;15.30;83.30;;;;;;5006323;28;20022;-72
2021/08/14 02:01:38;;;;;;;22.90;8.05;;;15.30;83.20;;;;;;4999746;28;20359;-72
2021/08/14 02:04:04;;;;;;;20.95;7.82;;;15.30;83.20;;;;;;4999682;28;20050;-80
2021/08/14 02:06:32;;;;;;;18.88;7.47;;;15.30;83.30;;;;;;5001911;28;20480;-73
2021/08/14 02:08:57;;;;;;;21.60;7.70;;;15.30;83.40;;;;;;5005552;28;20061;-73
2021/08/14 02:11:29;;;;;;;15.27;7.55;;;15.30;83.30;;;;;;4995076;28;20037;-74
2021/08/14 02:13:56;;;;;;;20.42;7.80;;;15.30;83.50;;;;;;5007404;28;20034;-71
2021/08/14 02:16:22;;;;;;;20.92;7.57;;;15.40;83.20;;;;;;5021977;28;20122;-72
2021/08/14 02:18:48;;;;;;;22.85;8.65;;;15.40;83.50;;;;;;5012684;28;20025;-72
2021/08/14 02:21:13;;;;;;;20.80;8.05;;;15.30;83.50;;;;;;5019264;28;20045;-72
2021/08/14 02:23:39;;;;;;;20.13;7.70;;;15.30;83.60;;;;;;5016789;28;20132;-74
2021/08/14 02:26:06;;;;;;;24.15;8.25;;;15.30;83.50;;;;;;4997865;28;20357;-72
2021/08/14 02:28:32;;;;;;;19.73;8.02;;;15.30;83.80;;;;;;4999101;28;20053;-72
2021/08/14 02:30:59;;;;;;;20.95;8.55;;;15.40;83.80;;;;;;5001688;28;20042;-73
2021/08/14 02:33:25;;;;;;;27.27;8.85;;;15.30;83.80;;;;;;4996170;28;20280;-72
2021/08/14 02:35:52;;;;;;;24.88;8.98;;;15.40;83.90;;;;;;4993321;28;20640;-72
2021/08/14 02:38:18;;;;;;;22.98;9.93;;;15.40;84.00;;;;;;4995919;28;20042;-72
2021/08/14 02:40:47;;;;;;;19.75;7.95;;;15.40;84.10;;;;;;4998250;28;20034;-72
2021/08/14 02:43:13;;;;;;;23.42;8.80;;;15.50;84.20;;;;;;5003287;28;20029;-75
2021/08/14 02:45:39;;;;;;;22.63;8.77;;;15.50;84.20;;;;;;4996043;28;20067;-72
2021/08/14 02:48:05;;;;;;;23.10;9.10;;;15.50;84.20;;;;;;5006852;28;20041;-77
2021/08/14 02:50:31;;;;;;;23.63;9.00;;;15.60;84.10;;;;;;5019125;28;20026;-72
2021/08/14 02:52:56;;;;;;;19.55;8.02;;;15.60;84.10;;;;;;5000827;28;20491;-80
2021/08/14 02:55:22;;;;;;;18.55;7.30;;;15.60;84.20;;;;;;5000112;28;20552;-72
2021/08/14 02:57:48;;;;;;;21.45;9.13;;;15.60;84.10;;;;;;5004267;28;20488;-72
2021/08/14 03:00:14;;;;;;;24.98;8.48;;;15.60;84.00;;;;;;4998782;28;20060;-73
2021/08/14 03:02:40;;;;;;;23.70;8.15;;;15.60;84.00;;;;;;5005672;28;20025;-72
2021/08/14 03:05:06;;;;;;;24.38;9.00;;;15.60;84.00;;;;;;5022650;28;20049;-77
2021/08/14 03:07:32;;;;;;;27.33;9.90;;;15.60;84.10;;;;;;5003188;28;20033;-76
2021/08/14 03:09:58;;;;;;;21.23;9.10;;;15.50;84.30;;;;;;5020603;28;20377;-73
2021/08/14 03:12:24;;;;;;;26.02;9.75;;;15.50;84.40;;;;;;5007939;28;20037;-74
2021/08/14 03:14:50;;;;;;;24.48;9.38;;;15.50;84.60;;;;;;5002946;28;20034;-79
2021/08/14 03:17:16;;;;;;;22.58;9.23;;;15.50;84.60;;;;;;4996548;28;20079;-74
2021/08/14 03:19:42;;;;;;;20.15;8.30;;;15.50;84.70;;;;;;4998623;28;20041;-72
2021/08/14 03:22:09;;;;;;;26.65;9.90;;;15.50;84.60;;;;;;4994098;28;20076;-75
2021/08/14 03:24:35;;;;;;;20.95;9.15;;;15.50;84.90;;;;;;4997628;28;20070;-75
2021/08/14 03:27:00;;;;;;;23.33;9.32;;;15.50;85.00;;;;;;5017915;28;20462;-72
2021/08/14 03:29:26;;;;;;;24.58;9.20;;;15.50;85.00;;;;;;5019069;28;20085;-73
2021/08/14 03:31:52;;;;;;;24.38;9.85;;;15.50;85.00;;;;;;5006985;28;20038;-72
2021/08/14 03:34:17;;;;;;;26.27;9.05;;;15.60;84.70;;;;;;4995699;28;20045;-72
2021/08/14 03:36:43;;;;;;;22.35;9.35;;;15.60;84.50;;;;;;4997852;28;20031;-78
2021/08/14 03:39:09;;;;;;;25.52;9.43;;;15.60;84.50;;;;;;4998697;28;20063;-76
2021/08/14 03:41:34;;;;;;;22.55;9.50;;;15.60;84.50;;;;;;4995835;28;20442;-72
2021/08/14 03:44:01;;;;;;;23.33;9.65;;;15.50;84.40;;;;;;4999887;28;20064;-73
2021/08/14 03:46:27;;;;;;;23.65;9.63;;;15.50;84.40;;;;;;4994161;28;20378;-77
2021/08/14 03:48:53;;;;;;;22.70;8.70;;;15.60;84.40;;;;;;5000078;28;20499;-77
2021/08/14 03:51:18;;;;;;;21.10;8.52;;;15.50;84.30;;;;;;5001281;28;20046;-73
2021/08/14 03:53:44;;;;;;;22.33;9.23;;;15.50;84.40;;;;;;5013620;28;20060;-74
2021/08/14 03:56:10;;;;;;;24.05;8.52;;;15.40;84.60;;;;;;4998073;28;20080;-72
2021/08/14 03:58:35;;;;;;;22.58;9.60;;;15.30;84.60;;;;;;5000306;28;20041;-72
2021/08/14 04:01:02;;;;;;;21.13;8.48;;;15.30;84.70;;;;;;5004671;28;20448;-77
2021/08/14 04:03:29;;;;;;;19.10;8.68;;;15.30;84.80;;;;;;5001699;28;20497;-74
2021/08/14 04:05:56;;;;;;;22.52;9.02;;;15.20;84.80;;;;;;4997577;28;20042;-71
2021/08/14 04:08:21;;;;;;;25.67;10.00;;;15.10;84.80;;;;;;4995641;28;20389;-78
2021/08/14 04:10:47;;;;;;;21.85;8.75;;;15.10;84.80;;;;;;4995465;28;20030;-77
2021/08/14 04:13:13;;;;;;;17.55;8.70;;;15.10;84.90;;;;;;4994286;28;20045;-76
2021/08/14 04:15:38;;;;;;;26.08;9.23;;;15.10;85.00;;;;;;5014486;28;20041;-73
2021/08/14 04:18:04;;;;;;;21.80;9.48;;;15.10;85.20;;;;;;5022742;28;20042;-73
2021/08/14 04:20:30;;;;;;;19.58;8.55;;;15.00;85.20;;;;;;5019183;28;20029;-72
2021/08/14 04:22:56;;;;;;;25.42;9.52;;;15.00;85.30;;;;;;4996304;28;20360;-75
2021/08/14 04:25:22;;;;;;;26.65;10.35;;;15.00;85.20;;;;;;4996997;28;20045;-73
2021/08/14 04:27:47;;;;;;;25.17;9.73;;;15.00;85.30;;;;;;5005287;28;20085;-73
2021/08/14 04:30:13;;;;;;;20.83;8.90;;;14.90;85.40;;;;;;5019836;28;20037;-72
2021/08/14 04:32:39;;;;;;;26.05;9.98;;;14.90;85.60;;;;;;5005068;28;20036;-72
2021/08/14 04:35:06;;;;;;;22.15;9.40;;;14.90;85.70;;;;;;5003384;28;20038;-73
2021/08/14 04:37:32;;;;;;;23.38;10.80;;;14.90;85.70;;;;;;5006418;28;20478;-73
2021/08/14 04:39:58;;;;;;;17.88;7.95;;;14.90;85.70;;;;;;4993694;28;20042;-77
2021/08/14 04:42:24;;;;;;;18.05;9.30;;;14.80;85.70;;;;;;4996645;28;20030;-79
2021/08/14 04:44:49;;;;;;;20.45;9.25;;;14.90;85.80;;;;;;4997228;28;20049;-74
2021/08/14 04:47:15;;;;;;;22.40;9.40;;;15.00;85.70;;;;;;4996305;28;20576;-72
2021/08/14 04:49:41;;;;;;;17.85;9.10;;;15.00;85.30;;;;;;4995572;28;20162;-73
2021/08/14 04:52:06;;;;;;;24.70;10.02;;;15.00;85.30;;;;;;5015331;28;20382;-74
2021/08/14 04:54:32;;;;;;;20.25;9.23;;;15.10;85.40;;;;;;5021832;28;20392;-78
2021/08/14 04:56:58;;;;;;;23.58;10.75;;;15.10;85.40;;;;;;5021370;28;20033;-74
2021/08/14 04:59:23;;;;;;;28.25;10.30;;;15.10;85.00;;;;;;5022049;28;20045;-74
2021/08/14 05:01:49;;;;;;;21.27;9.52;;;15.20;85.10;;;;;;5021151;28;20029;-73
2021/08/14 05:04:15;;;;;;;27.58;10.05;;;15.20;85.20;;;;;;5022185;28;20033;-75
2021/08/14 05:06:40;;;;;;;25.20;10.30;;;15.30;84.90;;;;;;5020618;28;20668;-72
2021/08/14 05:09:06;;;;;;;21.48;9.88;;;15.40;84.80;;;;;;5017694;28;20030;-79
2021/08/14 05:11:32;;;;;;;20.73;9.23;;;15.40;84.70;;;;;;5018083;28;20036;-79
2021/08/14 05:13:58;;;;;;;23.23;9.48;;;15.50;84.50;;;;;;5022554;28;20057;-75
2021/08/14 05:16:25;;;;;;;21.08;9.32;;;15.50;84.40;;;;;;5020100;28;20392;-73
2021/08/14 05:18:54;;;;;;;17.27;9.07;;;15.60;84.10;;;;;;5018777;28;20045;-73
2021/08/14 05:21:21;;;;;;;21.35;9.02;;;15.60;83.90;;;;;;5018395;28;20038;-74
2021/08/14 05:23:47;;;;;;;18.80;8.88;;;15.70;83.70;;;;;;5023700;28;20072;-72
2021/08/14 05:26:12;;;;;;;26.55;10.13;;;15.80;83.70;;;;;;5017146;28;20482;-74
2021/08/14 05:28:38;;;;;;;24.23;9.38;;;16.00;83.20;;;;;;5019934;28;20088;-75
2021/08/14 05:31:04;;;;;;;22.10;10.02;;;16.10;82.40;;;;;;5021788;28;20670;-73
2021/08/14 05:33:30;;;;;;;23.52;9.27;;;16.10;82.20;;;;;;5021132;28;20068;-73
2021/08/14 05:35:55;;;;;;;19.60;8.43;;;16.10;82.50;;;;;;5021102;28;20033;-79
2021/08/14 05:38:21;;;;;;;22.60;8.30;;;16.20;82.20;;;;;;5019910;28;20045;-79
2021/08/14 05:40:47;;;;;;;17.25;8.00;;;16.20;81.80;;;;;;5019561;28;20457;-73
2021/08/14 05:43:13;;;;;;;18.85;8.27;;;16.30;82.10;;;;;;5016282;28;20038;-78
2021/08/14 05:45:38;;;;;;;19.00;8.23;;;16.30;82.10;;;;;;5021936;28;20045;-78
2021/08/14 05:48:05;;;;;;;17.25;8.65;;;16.30;81.50;;;;;;5018769;28;20071;-77
2021/08/14 05:50:31;;;;;;;21.98;9.55;;;16.20;82.10;;;;;;5019536;28;20113;-76
2021/08/14 05:52:57;;;;;;;23.60;8.73;;;16.30;82.30;;;;;;5021329;28;20116;-72
2021/08/14 05:55:23;;;;;;;23.10;10.25;;;16.50;82.00;;;;;;5025907;28;20553;-74
2021/08/14 05:57:49;;;;;;;16.70;7.88;;;16.70;81.30;;;;;;5024344;28;20034;-78
2021/08/14 06:00:16;;;;;;;20.90;7.85;;;16.90;81.20;;;;;;5018458;28;20038;-74
2021/08/14 06:02:42;;;;;;;17.30;7.90;;;17.10;80.10;;;;;;5020952;28;20037;-78
2021/08/14 06:05:08;;;;;;;19.90;8.23;;;17.30;80.00;;;;;;5019745;28;20037;-74
2021/08/14 06:07:34;;;;;;;18.58;7.85;;;17.30;79.60;;;;;;5017723;28;20481;-73
2021/08/14 06:10:00;;;;;;;21.70;8.75;;;17.30;79.40;;;;;;5018230;28;20519;-74
2021/08/14 06:12:25;;;;;;;19.63;7.97;;;17.20;79.60;;;;;;5018909;28;20358;-74
2021/08/14 06:14:51;;;;;;;20.17;8.13;;;17.40;79.70;;;;;;5019667;28;20053;-75
2021/08/14 06:17:17;;;;;;;22.02;9.30;;;17.40;79.70;;;;;;5008557;28;20037;-72
2021/08/14 06:19:42;;;;;;;19.27;8.20;;;17.50;78.90;;;;;;4998335;28;20038;-73
2021/08/14 06:22:09;;;;;;;21.55;8.43;;;17.60;78.80;;;;;;5003381;28;20044;-75
2021/08/14 06:24:35;;;;;;;19.95;7.70;;;17.60;78.80;;;;;;5006768;28;20056;-73
2021/08/14 06:27:01;;;;;;;24.73;9.30;;;17.60;78.80;;;;;;5017585;28;20049;-78
2021/08/14 06:29:27;;;;;;;23.38;9.35;;;17.70;78.90;;;;;;4995109;28;20505;-73
2021/08/14 06:31:52;;;;;;;21.90;8.25;;;17.80;79.20;;;;;;4991797;28;20037;-74
2021/08/14 06:34:19;;;;;;;19.35;8.45;;;18.00;78.70;;;;;;4994181;28;20060;-76
2021/08/14 06:36:45;;;;;;;24.63;9.25;;;18.10;77.70;;;;;;4992951;28;20399;-75
2021/08/14 06:39:10;;;;;;;18.77;8.10;;;18.20;77.80;;;;;;4993709;28;20031;-73
2021/08/14 06:41:36;;;;;;;20.52;7.82;;;18.30;77.40;;;;;;4996113;28;20458;-73
2021/08/14 06:44:02;;;;;;;18.73;8.00;;;18.40;77.40;;;;;;4990672;28;20457;-75
2021/08/14 06:46:28;;;;;;;20.30;8.00;;;18.60;77.00;;;;;;4992554;28;20130;-77
2021/08/14 06:48:54;;;;;;;23.15;8.98;;;18.70;76.20;;;;;;4992685;28;20042;-80
2021/08/14 06:51:19;;;;;;;20.13;8.07;;;18.70;76.60;;;;;;4993677;28;20103;-75
2021/08/14 06:53:45;;;;;;;19.20;7.55;;;18.70;76.80;;;;;;4997720;28;20037;-74
2021/08/14 06:56:10;;;;;;;22.67;8.48;;;18.70;76.80;;;;;;4996016;28;20042;-73
2021/08/14 06:58:36;;;;;;;21.33;8.27;;;18.60;77.60;;;;;;4994395;28;20544;-73
2021/08/14 07:01:02;;;;;;;24.00;8.77;;;18.60;77.80;;;;;;4996407;28;20030;-78
2021/08/14 07:03:28;;;;;;;25.00;9.45;;;18.70;78.00;;;;;;4994644;28;20555;-79
2021/08/14 07:05:53;;;;;;;27.92;10.82;;;18.70;77.70;;;;;;4991478;28;20117;-73
2021/08/14 07:08:19;;;;;;;27.13;9.50;;;18.80;77.50;;;;;;4992745;28;20039;-73
2021/08/14 07:10:45;;;;;;;26.23;11.55;;;18.80;77.40;;;;;;4994384;28;20038;-77
2021/08/14 07:13:10;;;;;;;28.85;11.40;;;18.60;77.80;;;;;;4990597;28;20460;-73
2021/08/14 07:15:36;;;;;;;28.90;11.65;;;18.60;78.50;;;;;;4988347;28;21066;-75
2021/08/14 07:18:02;;;;;;;27.08;11.27;;;18.60;78.50;;;;;;4987801;28;20118;-76
2021/08/14 07:20:28;;;;;;;26.88;11.43;;;18.60;79.10;;;;;;4988206;28;20121;-80
2021/08/14 07:22:54;;;;;;;24.70;11.38;;;18.60;78.80;;;;;;4991862;28;20049;-74
2021/08/14 07:25:19;;;;;;;30.15;12.07;;;18.70;78.30;;;;;;4992114;28;20100;-73
2021/08/14 07:27:45;;;;;;;26.63;11.23;;;18.70;78.70;;;;;;4996205;28;20043;-73
2021/08/14 07:30:11;;;;;;;29.75;11.55;;;18.80;78.80;;;;;;4994517;28;20133;-76
2021/08/14 07:32:37;;;;;;;28.65;12.82;;;19.00;77.80;;;;;;4997849;28;20042;-74
2021/08/14 07:35:04;;;;;;;30.17;13.98;;;18.90;77.90;;;;;;4996430;28;20038;-70
2021/08/14 07:37:29;;;;;;;27.60;13.65;;;18.80;78.10;;;;;;4998662;28;20104;-70
2021/08/14 07:39:55;;;;;;;25.55;12.38;;;18.60;78.90;;;;;;4999171;28;20080;-71
2021/08/14 07:42:21;;;;;;;25.73;13.25;;;18.70;78.90;;;;;;4996520;28;20045;-69
2021/08/14 07:44:47;;;;;;;27.58;14.65;;;18.80;78.30;;;;;;5003046;28;20047;-70
2021/08/14 07:47:12;;;;;;;28.83;15.38;;;18.90;77.90;;;;;;4991399;28;20041;-76
2021/08/14 07:49:38;;;;;;;30.42;17.33;;;18.90;78.50;;;;;;4996637;28;20030;-71
2021/08/14 07:52:05;;;;;;;26.85;14.95;;;18.90;78.10;;;;;;4997040;28;20084;-73
2021/08/14 07:54:30;;;;;;;27.92;15.57;;;19.00;78.10;;;;;;4997508;28;20033;-70
2021/08/14 07:56:56;;;;;;;27.52;17.52;;;19.20;78.10;;;;;;4997917;28;20107;-73
2021/08/14 07:59:22;;;;;;;28.60;16.85;;;19.30;77.00;;;;;;4998427;28;20049;-69
2021/08/14 08:01:49;;;;;;;29.48;18.67;;;19.20;77.60;;;;;;4994502;28;20093;-72
2021/08/14 08:04:14;;;;;;;34.15;18.60;;;19.30;77.30;;;;;;4989346;28;20038;-70
2021/08/14 08:06:40;;;;;;;32.88;20.67;;;19.20;77.30;;;;;;4995881;28;20112;-75
2021/08/14 08:09:06;;;;;;;34.90;22.27;;;19.30;76.70;;;;;;4993553;28;20397;-77
2021/08/14 08:11:31;;;;;;;30.73;21.88;;;19.30;76.60;;;;;;5017322;28;20546;-70
2021/08/14 08:13:57;;;;;;;35.38;22.52;;;19.40;77.30;;;;;;5015301;28;20064;-71
2021/08/14 08:16:23;;;;;;;29.48;21.15;;;19.50;76.40;;;;;;4992751;28;20347;-75
2021/08/14 08:18:49;;;;;;;30.65;21.75;;;19.40;77.20;;;;;;4994187;28;20427;-75
2021/08/14 08:21:14;;;;;;;34.47;22.27;;;19.60;77.00;;;;;;4994653;28;20056;-74
2021/08/14 08:23:40;;;;;;;29.55;21.67;;;19.60;76.40;;;;;;4994471;28;20038;-78
2021/08/14 08:26:06;;;;;;;32.55;19.23;;;19.60;76.70;;;;;;4994840;28;20500;-74
2021/08/14 08:28:31;;;;;;;27.98;17.83;;;19.70;76.60;;;;;;4994472;28;20179;-71
2021/08/14 08:30:57;;;;;;;31.38;20.50;;;19.80;76.50;;;;;;4991610;28;20048;-70
2021/08/14 08:33:23;;;;;;;31.02;21.45;;;20.10;75.50;;;;;;4984543;28;20041;-78
2021/08/14 08:35:48;;;;;;;36.55;25.17;;;20.40;74.90;;;;;;4994205;28;20038;-71
2021/08/14 08:38:14;;;;;;;32.15;22.85;;;20.70;73.50;;;;;;4994711;28;20068;-71
2021/08/14 08:40:42;;;;;;;36.88;23.95;;;20.90;73.00;;;;;;5000884;28;20392;-71
2021/08/14 08:43:08;;;;;;;38.45;25.50;;;21.00;72.20;;;;;;5002349;28;20101;-70
2021/08/14 08:45:34;;;;;;;32.50;22.50;;;20.60;72.90;;;;;;5002077;28;20346;-70
2021/08/14 08:48:03;;;;;;;32.15;19.00;;;20.60;73.50;;;;;;4997081;28;20046;-70
2021/08/14 08:50:29;;;;;;;34.10;20.98;;;20.60;73.40;;;;;;4993964;28;20042;-71
2021/08/14 08:52:55;;;;;;;33.47;19.75;;;21.00;72.70;;;;;;4998063;28;20079;-72
2021/08/14 08:55:23;;;;;;;36.05;19.05;;;20.80;72.80;;;;;;4997344;28;20054;-71
2021/08/14 08:57:48;;;;;;;32.20;22.52;;;20.90;72.30;;;;;;4996514;28;20042;-70
2021/08/14 09:00:18;;;;;;;32.50;23.80;;;21.10;71.20;;;;;;4996661;28;20029;-74
2021/08/14 09:02:45;;;;;;;32.97;24.60;;;21.40;70.60;;;;;;5001405;28;20121;-73
2021/08/14 09:05:13;;;;;;;38.78;27.88;;;21.80;70.10;;;;;;4995168;28;20477;-73
2021/08/14 09:07:40;;;;;;;33.65;24.45;;;21.80;69.40;;;;;;4995706;28;20042;-72
2021/08/14 09:10:09;;;;;;;32.92;24.15;;;22.00;69.20;;;;;;4995736;28;20094;-70
2021/08/14 09:12:41;;;;;;;26.70;23.13;;;21.80;69.70;;;;;;4996894;28;20046;-76
2021/08/14 09:15:27;;;;;;;25.88;19.15;;;21.80;69.50;;;;;;4994599;28;20065;-70
2021/08/14 09:18:00;;;;;;;30.83;20.25;;;21.70;71.00;;;;;;5002596;28;20030;-70
2021/08/14 09:20:26;;;;;;;28.02;19.08;;;22.50;67.90;;;;;;5026626;28;20053;-69
2021/08/14 09:23:13;;;;;;;26.92;19.83;;;22.90;67.00;;;;;;5019158;28;20168;-75
2021/08/14 09:25:42;;;;;;;31.08;18.13;;;22.60;65.90;;;;;;5019086;28;20124;-70
2021/08/14 09:28:08;;;;;;;31.65;18.00;;;22.60;67.30;;;;;;5016087;28;20041;-71
2021/08/14 09:30:46;;;;;;;24.88;14.70;;;22.60;67.10;;;;;;5017490;28;20056;-74
2021/08/14 09:33:14;;;;;;;21.40;12.90;;;22.80;66.40;;;;;;5015816;28;20033;-72
2021/08/14 09:35:41;;;;;;;32.33;15.30;;;23.10;66.30;;;;;;4996604;28;20030;-70
2021/08/14 09:38:09;;;;;;;22.20;15.18;;;23.20;64.40;;;;;;4994832;28;20077;-70
2021/08/14 09:40:46;;;;;;;24.30;14.30;;;23.10;65.80;;;;;;4994790;28;20048;-72
2021/08/14 09:43:32;;;;;;;26.50;13.57;;;23.10;66.60;;;;;;5008300;28;20054;-70
2021/08/14 09:45:58;;;;;;;21.85;12.85;;;23.50;65.00;;;;;;5008409;28;20041;-70
2021/08/14 09:48:25;;;;;;;21.88;12.55;;;23.80;63.70;;;;;;4993240;28;20385;-70
2021/08/14 09:50:52;;;;;;;24.40;12.10;;;23.50;63.20;;;;;;5009051;28;20042;-76
2021/08/14 09:53:23;;;;;;;23.00;11.00;;;23.00;63.90;;;;;;5005097;28;20045;-70
2021/08/14 09:56:10;;;;;;;24.08;10.38;;;23.10;63.80;;;;;;5016546;28;20033;-70
2021/08/14 09:58:40;;;;;;;18.25;10.02;;;23.60;63.00;;;;;;5005182;28;20080;-70
2021/08/14 10:01:09;;;;;;;18.50;10.32;;;24.10;62.10;;;;;;4998761;28;20100;-70
2021/08/14 10:03:36;;;;;;;19.85;9.27;;;24.10;62.00;;;;;;4997632;28;20092;-72
2021/08/14 10:06:02;;;;;;;20.92;9.48;;;23.70;59.80;;;;;;4999887;28;20053;-70
2021/08/14 10:08:29;;;;;;;21.90;10.20;;;23.90;60.80;;;;;;5003807;28;20112;-70
2021/08/14 10:10:56;;;;;;;21.15;10.50;;;24.30;60.40;;;;;;5003171;28;20386;-71
2021/08/14 10:13:23;;;;;;;16.55;9.70;;;24.10;60.20;;;;;;5003834;28;20037;-74
2021/08/14 10:15:50;;;;;;;18.05;8.82;;;23.60;61.30;;;;;;5000442;28;20042;-78
2021/08/14 10:18:17;;;;;;;20.75;8.38;;;23.60;60.50;;;;;;5002857;28;20399;-71
2021/08/14 10:20:45;;;;;;;20.17;9.52;;;24.10;59.40;;;;;;5006599;28;20477;-71
2021/08/14 10:23:11;;;;;;;17.48;8.07;;;24.50;60.30;;;;;;4999585;28;20073;-73
2021/08/14 10:25:41;;;;;;;20.38;8.48;;;24.80;60.10;;;;;;5002399;28;20062;-70
2021/08/14 10:28:08;;;;;;;16.70;8.48;;;25.20;58.30;;;;;;5007039;28;20077;-71
2021/08/14 10:30:50;;;;;;;19.27;8.02;;;25.30;56.50;;;;;;5007386;28;20476;-70
2021/08/14 10:33:32;;;;;;;16.60;8.85;;;25.60;57.00;;;;;;5004227;28;20037;-70
2021/08/14 10:36:19;;;;;;;18.20;8.70;;;25.60;55.80;;;;;;5000188;28;20181;-70
2021/08/14 10:38:47;;;;;;;15.75;7.55;;;26.00;55.10;;;;;;5011023;28;20026;-70
2021/08/14 10:41:13;;;;;;;14.52;7.85;;;26.30;54.00;;;;;;5004595;28;20022;-71
2021/08/14 10:43:54;;;;;;;16.35;8.18;;;25.70;55.70;;;;;;5009735;28;20358;-72
2021/08/14 10:46:48;;;;;;;16.48;8.07;;;25.20;55.70;;;;;;5012105;28;20106;-71
2021/08/14 10:49:37;;;;;;;16.20;7.43;;;25.30;56.20;;;;;;5006217;28;20501;-71
2021/08/14 10:52:03;;;;;;;14.23;6.88;;;24.60;56.10;;;;;;5003945;28;20041;-74
2021/08/14 10:54:28;;;;;;;16.58;6.88;;;24.50;58.30;;;;;;5014540;28;20038;-74
2021/08/14 10:56:59;;;;;;;15.00;6.35;;;24.00;57.50;;;;;;5007109;28;20546;-72
2021/08/14 10:59:37;;;;;;;17.55;7.05;;;24.10;58.90;;;;;;5003974;28;20022;-75
2021/08/14 11:02:29;;;;;;;14.07;6.25;;;24.00;58.20;;;;;;5005898;28;20520;-70
2021/08/14 11:04:55;;;;;;;18.27;7.03;;;24.10;58.10;;;;;;5007965;28;20084;-70
2021/08/14 11:07:21;;;;;;;16.45;6.50;;;24.00;58.00;;;;;;5000413;28;20038;-71
2021/08/14 11:09:53;;;;;;;16.95;6.93;;;24.00;57.90;;;;;;5007949;28;20164;-72
2021/08/14 11:12:52;;;;;;;18.23;7.13;;;24.10;58.80;;;;;;5003833;28;20046;-70
2021/08/14 11:15:23;;;;;;;13.73;6.95;;;24.10;59.30;;;;;;4998842;28;20397;-74
2021/08/14 11:18:00;;;;;;;13.50;6.30;;;24.30;57.90;;;;;;5012133;28;20469;-74
2021/08/14 11:20:26;;;;;;;16.70;6.82;;;24.30;57.80;;;;;;5023936;28;20056;-70
2021/08/14 11:22:54;;;;;;;13.90;5.85;;;24.50;58.00;;;;;;5024386;28;20038;-71
2021/08/14 11:25:40;;;;;;;17.92;6.80;;;24.90;55.80;;;;;;5026641;28;20551;-70
2021/08/14 11:28:10;;;;;;;16.25;6.25;;;25.00;56.30;;;;;;5018084;28;20057;-72
2021/08/14 11:30:55;;;;;;;14.20;6.00;;;24.90;56.20;;;;;;5020670;28;20114;-70
2021/08/14 11:33:26;;;;;;;12.63;5.78;;;24.70;57.70;;;;;;5025318;28;20065;-71
2021/08/14 11:36:09;;;;;;;13.23;6.32;;;24.60;56.60;;;;;;5023374;28;20049;-74
2021/08/14 11:38:42;;;;;;;13.27;5.35;;;24.80;56.50;;;;;;5021168;28;20044;-70
2021/08/14 11:41:21;;;;;;;14.23;6.50;;;25.00;54.90;;;;;;5024732;28;20050;-83
2021/08/14 11:43:46;;;;;;;14.77;6.68;;;25.10;55.90;;;;;;5020906;28;20040;-73
2021/08/14 11:46:12;;;;;;;16.02;6.78;;;25.60;55.00;;;;;;5020350;28;20030;-71
2021/08/14 11:48:40;;;;;;;14.90;6.57;;;25.60;54.20;;;;;;5034830;28;20030;-73
2021/08/14 11:51:24;;;;;;;13.98;6.53;;;25.50;56.20;;;;;;5018667;28;20030;-74
2021/08/14 11:54:08;;;;;;;14.77;5.68;;;25.10;55.00;;;;;;5026801;28;20385;-71
2021/08/14 11:56:34;;;;;;;15.82;6.57;;;24.60;55.90;;;;;;5030047;28;20034;-74
2021/08/14 11:59:01;;;;;;;13.93;5.90;;;24.80;56.10;;;;;;5031488;28;20032;-70
2021/08/14 12:01:26;;;;;;;14.23;6.63;;;25.00;56.30;;;;;;5027830;28;20030;-70
2021/08/14 12:04:00;;;;;;;14.25;6.72;;;24.80;56.30;;;;;;5026089;28;20048;-70
2021/08/14 12:06:33;;;;;;;15.23;6.07;;;24.90;56.50;;;;;;5023993;28;20037;-78
2021/08/14 12:09:02;;;;;;;14.73;5.63;;;25.00;55.30;;;;;;5027568;28;20042;-72
2021/08/14 12:11:28;;;;;;;13.15;5.07;;;25.10;56.10;;;;;;5027800;28;20033;-74
2021/08/14 12:14:16;;;;;;;15.85;5.35;;;25.10;54.50;;;;;;5019362;28;20033;-74
2021/08/14 12:16:44;;;;;;;13.48;5.68;;;25.60;54.00;;;;;;5040384;28;20041;-73
2021/08/14 12:19:21;;;;;;;13.15;5.40;;;26.00;52.20;;;;;;5029557;28;20037;-73
2021/08/14 12:22:08;;;;;;;14.68;6.07;;;25.90;53.60;;;;;;5024658;28;20069;-74
2021/08/14 12:24:34;;;;;;;14.38;5.00;;;26.00;52.90;;;;;;5033972;28;20045;-73
2021/08/14 12:27:00;;;;;;;12.98;5.35;;;26.00;52.70;;;;;;5021547;28;20059;-72
2021/08/14 12:29:25;;;;;;;11.10;4.47;;;25.90;52.80;;;;;;5022599;28;20033;-72
2021/08/14 12:31:56;;;;;;;13.18;4.85;;;26.20;52.20;;;;;;5020178;28;20033;-73
2021/08/14 12:34:22;;;;;;;12.13;4.97;;;26.70;51.90;;;;;;5041757;28;20552;-72
2021/08/14 12:37:15;;;;;;;12.20;4.85;;;27.10;50.60;;;;;;5021921;28;20117;-72